Time;durP1;ratioP1;P1;durP2;ratioP2;P2;SDS_P1;SDS_P2;PMS_P1;PMS_P2;Temp;Humidity;BMP_temperature;BMP_pressure;BME280_temperature;BME280_humidity;BME280_pressure;Samples;Min_cycle;Max_cycle;Signal;HPM_P1;HPM_P2
2021/12/28 00:04:10;;;;;;;12.10;3.40;;;9.00;99.90;;;;;;20768929;28;20048;-44
2021/12/28 00:14:11;;;;;;;9.38;3.97;;;9.00;99.90;;;;;;20770192;28;20052;-44
2021/12/28 00:24:12;;;;;;;10.45;3.00;;;8.80;99.90;;;;;;20766270;28;20132;-44
2021/12/28 00:34:13;;;;;;;8.20;3.38;;;8.80;99.90;;;;;;20761362;28;20489;-44
2021/12/28 00:44:14;;;;;;;7.72;2.47;;;8.60;99.90;;;;;;20768307;28;20486;-44
2021/12/28 00:54:18;;;;;;;6.65;3.22;;;8.70;99.90;;;;;;20764621;28;20057;-44
2021/12/28 01:04:19;;;;;;;7.00;3.22;;;8.50;99.90;;;;;;20745223;28;20045;-44
2021/12/28 01:14:20;;;;;;;8.15;3.08;;;8.60;99.90;;;;;;20768581;28;20049;-44
2021/12/28 01:24:22;;;;;;;19.10;2.67;;;8.70;99.90;;;;;;20765571;28;20034;-44
2021/12/28 01:34:23;;;;;;;7.15;2.85;;;8.80;99.90;;;;;;20779329;28;20071;-44
2021/12/28 01:44:24;;;;;;;6.45;2.30;;;8.70;99.90;;;;;;20782058;28;20052;-44
2021/12/28 01:54:26;;;;;;;9.93;2.40;;;8.70;99.90;;;;;;20753742;28;20060;-44
2021/12/28 02:04:28;;;;;;;7.60;3.42;;;8.70;99.90;;;;;;20778609;28;20544;-44
2021/12/28 02:14:29;;;;;;;8.40;2.25;;;8.70;99.90;;;;;;20780168;28;20211;-44
2021/12/28 02:24:31;;;;;;;8.73;1.90;;;8.40;99.90;;;;;;20778171;28;20576;-44
2021/12/28 02:34:32;;;;;;;3.80;1.90;;;8.30;99.90;;;;;;20753999;28;20056;-44
2021/12/28 02:44:33;;;;;;;6.55;1.60;;;8.30;99.90;;;;;;20776767;28;20614;-44
2021/12/28 02:54:38;;;;;;;5.75;2.53;;;8.30;99.90;;;;;;20773307;28;20045;-44
2021/12/28 03:04:40;;;;;;;8.75;1.48;;;8.30;99.90;;;;;;20768980;28;20108;-44
2021/12/28 03:14:42;;;;;;;4.53;1.85;;;8.30;99.90;;;;;;20776137;28;20508;-44
2021/12/28 03:24:43;;;;;;;7.75;2.75;;;8.30;99.90;;;;;;20771577;28;20429;-44
2021/12/28 03:34:46;;;;;;;12.30;2.42;;;8.30;99.90;;;;;;20749829;28;20126;-44
2021/12/28 03:44:47;;;;;;;4.93;1.40;;;8.30;99.90;;;;;;20772425;28;20034;-44
2021/12/28 03:54:48;;;;;;;6.53;1.63;;;8.40;99.90;;;;;;20769977;28;20616;-44
2021/12/28 04:04:52;;;;;;;7.85;1.85;;;8.60;99.90;;;;;;20771412;28;20038;-44
2021/12/28 04:14:54;;;;;;;11.85;2.25;;;8.70;99.90;;;;;;20772543;28;20033;-44
2021/12/28 04:24:55;;;;;;;12.98;2.70;;;8.60;99.90;;;;;;20750867;28;20810;-44
2021/12/28 04:34:56;;;;;;;5.35;1.45;;;8.60;99.90;;;;;;20767264;28;20037;-44
2021/12/28 04:44:57;;;;;;;7.43;2.08;;;8.70;99.90;;;;;;20767472;28;20045;-44
2021/12/28 04:54:58;;;;;;;5.97;1.52;;;8.70;99.90;;;;;;20765426;28;20770;-44
2021/12/28 05:04:59;;;;;;;5.57;1.58;;;8.80;99.90;;;;;;20777257;28;20048;-44
2021/12/28 05:15:02;;;;;;;5.93;2.03;;;8.90;99.90;;;;;;20786783;28;20501;-43
2021/12/28 05:25:04;;;;;;;4.55;1.08;;;8.90;99.90;;;;;;20760986;28;20108;-44
2021/12/28 05:35:07;;;;;;;8.52;1.58;;;8.90;99.90;;;;;;20781725;28;20057;-44
2021/12/28 05:45:10;;;;;;;3.50;0.88;;;9.00;99.90;;;;;;20781435;28;20498;-44
2021/12/28 05:55:11;;;;;;;5.82;1.42;;;8.90;99.90;;;;;;20783266;28;20576;-44
2021/12/28 06:05:13;;;;;;;9.50;1.52;;;8.90;99.90;;;;;;20779230;28;20038;-44
2021/12/28 06:15:14;;;;;;;4.10;1.30;;;8.90;99.90;;;;;;20780388;28;20436;-44
2021/12/28 06:25:15;;;;;;;3.35;0.98;;;9.00;99.90;;;;;;20753079;28;20045;-44
2021/12/28 06:35:18;;;;;;;9.57;1.70;;;9.10;99.90;;;;;;20765420;28;20166;-44
2021/12/28 06:45:19;;;;;;;6.50;1.08;;;9.20;99.90;;;;;;20784680;28;20087;-44
2021/12/28 06:55:21;;;;;;;5.65;2.00;;;9.30;99.90;;;;;;20785287;28;20767;-44
2021/12/28 07:05:22;;;;;;;3.70;1.10;;;9.20;99.90;;;;;;20780011;28;20049;-44
2021/12/28 07:15:23;;;;;;;6.22;2.13;;;9.20;99.90;;;;;;20777923;28;20341;-44
2021/12/28 07:25:24;;;;;;;12.80;1.60;;;9.30;99.90;;;;;;20772824;28;20397;-44
2021/12/28 07:35:26;;;;;;;10.70;1.75;;;9.40;99.90;;;;;;20736611;28;20060;-44
2021/12/28 07:45:27;;;;;;;8.73;1.40;;;9.40;99.90;;;;;;20777080;28;20526;-44
2021/12/28 07:55:28;;;;;;;4.60;1.55;;;9.40;99.90;;;;;;20761960;28;20052;-44
2021/12/28 08:05:31;;;;;;;4.88;1.73;;;9.50;99.90;;;;;;20768363;28;20045;-44
2021/12/28 08:15:32;;;;;;;5.82;1.58;;;9.50;99.90;;;;;;20768970;28;20501;-44
2021/12/28 08:25:34;;;;;;;4.95;1.52;;;9.50;99.90;;;;;;20773906;28;20045;-44
2021/12/28 08:35:39;;;;;;;5.88;1.88;;;9.50;99.90;;;;;;20770927;28;20052;-44
2021/12/28 08:45:41;;;;;;;9.23;1.60;;;9.50;99.90;;;;;;20734466;28;20461;-44
2021/12/28 08:55:43;;;;;;;3.38;1.35;;;9.60;99.90;;;;;;20761989;28;20048;-44
2021/12/28 09:05:46;;;;;;;4.60;2.40;;;9.60;99.90;;;;;;20770854;28;20138;-44
2021/12/28 09:16:07;;;;;;;3.83;1.58;;;9.60;99.90;;;;;;20752402;28;20501;-44
2021/12/28 09:26:08;;;;;;;2.38;1.10;;;9.60;99.90;;;;;;20731453;28;20041;-44
2021/12/28 09:36:14;;;;;;;9.10;1.70;;;9.70;99.90;;;;;;20761571;28;20045;-44
2021/12/28 09:46:16;;;;;;;5.70;2.30;;;9.70;99.90;;;;;;20737326;28;20037;-44
2021/12/28 09:56:17;;;;;;;5.22;2.42;;;9.80;99.90;;;;;;20724910;28;20049;-44
2021/12/28 10:06:21;;;;;;;9.38;3.40;;;9.90;99.90;;;;;;20759921;28;20042;-44
2021/12/28 10:16:46;;;;;;;9.18;1.95;;;10.00;99.90;;;;;;20743693;28;20050;-44
2021/12/28 10:27:15;;;;;;;5.70;1.80;;;10.00;99.90;;;;;;20745180;28;20096;-44
2021/12/28 10:37:19;;;;;;;7.35;2.80;;;10.00;99.90;;;;;;20757702;28;20072;-44
2021/12/28 10:47:27;;;;;;;5.68;1.77;;;10.10;99.90;;;;;;20732562;28;20033;-44
2021/12/28 10:57:44;;;;;;;6.57;2.58;;;10.10;99.90;;;;;;20738008;28;20046;-44
2021/12/28 11:07:58;;;;;;;4.18;1.88;;;10.20;99.90;;;;;;20706926;28;20481;-44
2021/12/28 11:18:00;;;;;;;3.30;1.60;;;10.20;99.90;;;;;;21150761;23;20052;-44
2021/12/28 11:28:22;;;;;;;3.25;1.48;;;10.20;99.90;;;;;;20800343;28;20033;-44
2021/12/28 11:38:23;;;;;;;4.03;1.05;;;10.30;99.90;;;;;;20839723;28;20049;-44
2021/12/28 11:48:26;;;;;;;1.70;0.52;;;10.20;99.90;;;;;;20854035;28;20124;-44
2021/12/28 11:58:58;;;;;;;3.47;0.93;;;10.10;99.90;;;;;;20828434;28;20051;-46
2021/12/28 12:09:03;;;;;;;4.55;0.60;;;10.00;99.90;;;;;;20835546;28;20045;-46
2021/12/28 12:19:04;;;;;;;2.15;0.40;;;9.90;99.90;;;;;;20810598;28;20049;-46
2021/12/28 12:29:19;;;;;;;2.13;0.45;;;10.00;99.90;;;;;;20903645;28;20040;-46
2021/12/28 12:39:23;;;;;;;5.30;0.95;;;9.50;99.90;;;;;;20856155;28;21021;-45
2021/12/28 12:49:27;;;;;;;2.47;1.10;;;9.30;99.90;;;;;;20900287;28;21460;-45
2021/12/28 12:59:44;;;;;;;2.33;0.73;;;9.30;99.90;;;;;;20848241;28;20060;-44
2021/12/28 13:10:23;;;;;;;6.45;0.85;;;9.30;99.90;;;;;;20884905;28;20037;-44
2021/12/28 13:20:33;;;;;;;10.85;2.53;;;9.50;99.90;;;;;;20790551;28;21012;-44
2021/12/28 13:30:37;;;;;;;11.07;2.10;;;10.30;99.90;;;;;;20882026;28;20057;-44
2021/12/28 13:40:46;;;;;;;8.75;1.30;;;10.30;99.90;;;;;;20890900;28;20048;-44
2021/12/28 13:50:58;;;;;;;14.35;1.20;;;10.00;99.90;;;;;;20908066;28;20404;-44
2021/12/28 14:01:05;;;;;;;4.95;0.77;;;9.20;99.90;;;;;;20899026;28;20504;-45
2021/12/28 14:11:06;;;;;;;4.55;0.90;;;8.80;99.90;;;;;;20902714;28;20146;-44
2021/12/28 14:21:28;;;;;;;7.00;1.20;;;8.70;99.90;;;;;;20840922;28;20055;-44
2021/12/28 14:31:45;;;;;;;7.97;0.90;;;8.80;99.90;;;;;;20785561;28;20044;-44
2021/12/28 14:42:06;;;;;;;4.80;1.42;;;8.80;99.90;;;;;;20859154;28;20046;-44
2021/12/28 14:52:20;;;;;;;8.27;0.73;;;8.80;99.90;;;;;;20831710;28;20050;-44
2021/12/28 15:02:23;;;;;;;4.32;0.47;;;8.90;99.90;;;;;;20801991;28;20338;-44
2021/12/28 15:12:36;;;;;;;1.25;0.20;;;8.90;99.90;;;;;;20816711;28;20576;-44
2021/12/28 15:22:38;;;;;;;3.88;0.47;;;8.70;99.90;;;;;;20779002;28;20064;-44
2021/12/28 15:32:40;;;;;;;4.65;0.75;;;8.60;99.90;;;;;;20774867;28;21154;-44
2021/12/28 15:42:42;;;;;;;1.98;0.60;;;8.60;99.90;;;;;;20813236;28;20045;-44
2021/12/28 15:52:44;;;;;;;8.10;1.48;;;8.50;99.90;;;;;;20732360;28;20042;-44
2021/12/28 16:02:45;;;;;;;2.95;0.60;;;8.50;99.90;;;;;;20789744;28;20444;-44
2021/12/28 16:12:46;;;;;;;4.32;1.02;;;8.50;99.90;;;;;;20835726;28;20033;-44
2021/12/28 16:22:50;;;;;;;9.82;2.88;;;8.50;99.90;;;;;;20860547;28;20497;-44
2021/12/28 16:32:53;;;;;;;5.72;1.08;;;8.50;99.90;;;;;;20774114;28;20040;-44
2021/12/28 16:42:55;;;;;;;1.92;0.63;;;8.40;99.90;;;;;;20857895;28;20049;-44
2021/12/28 16:52:56;;;;;;;8.07;1.10;;;8.40;99.90;;;;;;20815362;28;20404;-44
2021/12/28 17:02:57;;;;;;;5.95;1.00;;;8.40;99.90;;;;;;20759811;28;20123;-44
2021/12/28 17:13:05;;;;;;;4.75;0.90;;;8.50;99.90;;;;;;20797492;28;20552;-44
2021/12/28 17:23:09;;;;;;;1.70;1.15;;;8.60;99.90;;;;;;20808191;28;20041;-44
2021/12/28 17:33:11;;;;;;;2.42;1.00;;;8.50;99.90;;;;;;20783599;28;20033;-44
2021/12/28 17:43:12;;;;;;;2.47;0.80;;;8.50;99.90;;;;;;20783787;28;20060;-44
2021/12/28 17:53:15;;;;;;;2.90;0.95;;;8.60;99.90;;;;;;20776403;28;20619;-44
2021/12/28 18:03:22;;;;;;;3.97;1.50;;;8.70;99.90;;;;;;20785392;28;20053;-44
2021/12/28 18:13:23;;;;;;;5.13;1.10;;;8.80;99.90;;;;;;20828517;28;20416;-44
2021/12/28 18:23:25;;;;;;;6.00;1.27;;;8.80;99.90;;;;;;20885263;28;20087;-44
2021/12/28 18:33:27;;;;;;;9.60;1.85;;;8.90;99.90;;;;;;20833205;28;20455;-44
2021/12/28 18:43:28;;;;;;;7.07;2.20;;;9.00;99.90;;;;;;20812680;28;20036;-44
2021/12/28 18:53:31;;;;;;;4.20;1.67;;;9.00;99.90;;;;;;20858340;28;20043;-44
2021/12/28 19:03:33;;;;;;;2.95;1.33;;;9.10;99.90;;;;;;20819900;28;20306;-44
2021/12/28 19:13:35;;;;;;;2.55;0.93;;;9.20;99.90;;;;;;20825913;28;20041;-44
2021/12/28 19:23:36;;;;;;;4.03;1.52;;;9.30;99.90;;;;;;20816928;28;20046;-44
2021/12/28 19:33:37;;;;;;;5.03;1.17;;;9.40;99.90;;;;;;20867384;28;20048;-44
2021/12/28 19:43:39;;;;;;;1.90;0.90;;;9.20;99.90;;;;;;20802535;28;20410;-44
2021/12/28 19:53:40;;;;;;;11.70;1.50;;;9.20;99.90;;;;;;20787204;28;20045;-44
2021/12/28 20:03:41;;;;;;;3.92;1.35;;;9.20;99.90;;;;;;20706218;28;20042;-44
2021/12/28 20:13:43;;;;;;;8.18;2.03;;;9.10;99.90;;;;;;20640061;28;20045;-44
2021/12/28 20:23:45;;;;;;;10.57;3.33;;;9.20;99.90;;;;;;20648420;28;20109;-46
2021/12/28 20:33:46;;;;;;;5.55;1.80;;;9.20;99.90;;;;;;20641690;28;20037;-44
2021/12/28 20:43:48;;;;;;;5.65;2.17;;;9.20;99.90;;;;;;20672676;28;20057;-44
2021/12/28 20:53:49;;;;;;;2.70;1.23;;;9.20;99.90;;;;;;20728118;28;20045;-44
2021/12/28 21:03:51;;;;;;;4.70;1.25;;;9.20;99.90;;;;;;20737642;28;20051;-44
2021/12/28 21:13:52;;;;;;;5.35;1.52;;;9.20;99.90;;;;;;20712445;28;20046;-44
2021/12/28 21:23:53;;;;;;;8.25;1.80;;;9.20;99.90;;;;;;20693206;28;20409;-44
2021/12/28 21:33:54;;;;;;;4.40;1.25;;;9.20;99.90;;;;;;20685342;28;20035;-44
2021/12/28 21:43:55;;;;;;;3.88;1.75;;;9.20;99.90;;;;;;20695141;28;20061;-44
2021/12/28 21:53:56;;;;;;;3.65;1.27;;;9.20;99.90;;;;;;20706316;28;20034;-44
2021/12/28 22:03:57;;;;;;;4.55;1.80;;;9.20;99.90;;;;;;20699274;28;20046;-44
2021/12/28 22:13:59;;;;;;;4.63;1.95;;;9.20;99.90;;;;;;20703432;28;20041;-44
2021/12/28 22:24:00;;;;;;;11.45;2.13;;;9.20;99.90;;;;;;20707214;28;20058;-44
2021/12/28 22:34:01;;;;;;;7.68;3.17;;;9.10;99.90;;;;;;20704007;28;20042;-44
2021/12/28 22:44:02;;;;;;;5.97;2.08;;;9.10;99.90;;;;;;20697508;28;20502;-44
2021/12/28 22:54:04;;;;;;;7.95;2.20;;;9.10;99.90;;;;;;20686559;28;20049;-44
2021/12/28 23:04:07;;;;;;;10.23;1.92;;;9.10;99.90;;;;;;20692749;28;20129;-44
2021/12/28 23:14:10;;;;;;;2.72;0.88;;;9.10;99.90;;;;;;20719292;28;20421;-44
2021/12/28 23:24:12;;;;;;;10.10;1.95;;;9.10;99.90;;;;;;20709712;28;20085;-44
2021/12/28 23:34:13;;;;;;;2.70;1.13;;;9.10;99.90;;;;;;20708993;28;20042;-44
2021/12/28 23:44:14;;;;;;;5.75;1.38;;;9.10;99.90;;;;;;20724256;28;20386;-44
2021/12/28 23:54:16;;;;;;;4.97;2.08;;;9.20;99.90;;;;;;20710798;28;20552;-44
